sensor_id;sensor_type;location;lat;lon;timestamp;P1;durP1;ratioP1;P2;durP2;ratioP2
48733;SDS011;34530;52.084;5.146;2022-09-12T00:01:06;4.65;;;3.78;;
48733;SDS011;34530;52.084;5.146;2022-09-12T00:03:36;5.70;;;4.60;;
48733;SDS011;34530;52.084;5.146;2022-09-12T00:09:06;5.28;;;4.15;;
48733;SDS011;34530;52.084;5.146;2022-09-12T00:11:34;4.15;;;3.75;;
48733;SDS011;34530;52.084;5.146;2022-09-12T00:14:02;5.53;;;3.78;;
48733;SDS011;34530;52.084;5.146;2022-09-12T00:16:29;5.20;;;4.53;;
48733;SDS011;34530;52.084;5.146;2022-09-12T00:18:56;4.75;;;4.28;;
48733;SDS011;34530;52.084;5.146;2022-09-12T00:21:22;4.68;;;4.25;;
48733;SDS011;34530;52.084;5.146;2022-09-12T00:23:48;6.93;;;4.90;;
48733;SDS011;34530;52.084;5.146;2022-09-12T00:26:14;5.25;;;4.22;;
48733;SDS011;34530;52.084;5.146;2022-09-12T00:28:41;4.80;;;4.38;;
48733;SDS011;34530;52.084;5.146;2022-09-12T00:31:09;4.90;;;4.35;;
48733;SDS011;34530;52.084;5.146;2022-09-12T00:33:36;5.57;;;4.25;;
48733;SDS011;34530;52.084;5.146;2022-09-12T00:36:04;5.95;;;4.07;;
48733;SDS011;34530;52.084;5.146;2022-09-12T00:38:38;6.70;;;4.60;;
48733;SDS011;34530;52.084;5.146;2022-09-12T00:41:07;6.38;;;4.65;;
48733;SDS011;34530;52.084;5.146;2022-09-12T00:43:42;6.95;;;4.97;;
48733;SDS011;34530;52.084;5.146;2022-09-12T00:49:00;7.03;;;4.72;;
48733;SDS011;34530;52.084;5.146;2022-09-12T00:51:52;4.97;;;4.50;;
48733;SDS011;34530;52.084;5.146;2022-09-12T00:54:22;6.45;;;4.85;;
48733;SDS011;34530;52.084;5.146;2022-09-12T00:56:52;5.25;;;4.50;;
48733;SDS011;34530;52.084;5.146;2022-09-12T00:59:29;5.28;;;4.65;;
48733;SDS011;34530;52.084;5.146;2022-09-12T01:01:59;5.22;;;4.63;;
48733;SDS011;34530;52.084;5.146;2022-09-12T01:04:25;6.35;;;4.78;;
48733;SDS011;34530;52.084;5.146;2022-09-12T01:06:51;6.40;;;5.60;;
48733;SDS011;34530;52.084;5.146;2022-09-12T01:09:20;5.13;;;4.60;;
48733;SDS011;34530;52.084;5.146;2022-09-12T01:11:47;6.18;;;4.63;;
48733;SDS011;34530;52.084;5.146;2022-09-12T01:14:15;5.68;;;4.85;;
48733;SDS011;34530;52.084;5.146;2022-09-12T01:16:41;5.90;;;5.22;;
48733;SDS011;34530;52.084;5.146;2022-09-12T01:25:19;5.85;;;5.25;;
48733;SDS011;34530;52.084;5.146;2022-09-12T01:28:21;6.68;;;5.43;;
48733;SDS011;34530;52.084;5.146;2022-09-12T01:30:54;7.32;;;4.97;;
48733;SDS011;34530;52.084;5.146;2022-09-12T01:33:38;6.38;;;5.18;;
48733;SDS011;34530;52.084;5.146;2022-09-12T01:42:33;7.28;;;6.18;;
48733;SDS011;34530;52.084;5.146;2022-09-12T01:45:46;7.00;;;5.88;;
48733;SDS011;34530;52.084;5.146;2022-09-12T01:50:56;7.00;;;6.28;;
48733;SDS011;34530;52.084;5.146;2022-09-12T01:53:29;6.80;;;6.20;;
48733;SDS011;34530;52.084;5.146;2022-09-12T01:56:14;6.97;;;6.28;;
48733;SDS011;34530;52.084;5.146;2022-09-12T01:59:02;7.07;;;5.70;;
48733;SDS011;34530;52.084;5.146;2022-09-12T02:01:33;6.45;;;5.88;;
48733;SDS011;34530;52.084;5.146;2022-09-12T02:04:20;7.53;;;6.15;;
48733;SDS011;34530;52.084;5.146;2022-09-12T02:06:52;7.60;;;6.80;;
48733;SDS011;34530;52.084;5.146;2022-09-12T02:09:40;6.47;;;5.88;;
48733;SDS011;34530;52.084;5.146;2022-09-12T02:12:08;7.07;;;5.95;;
48733;SDS011;34530;52.084;5.146;2022-09-12T02:14:44;8.35;;;5.97;;
48733;SDS011;34530;52.084;5.146;2022-09-12T02:17:15;7.75;;;7.00;;
48733;SDS011;34530;52.084;5.146;2022-09-12T02:19:46;8.27;;;5.63;;
48733;SDS011;34530;52.084;5.146;2022-09-12T02:22:20;7.43;;;6.72;;
48733;SDS011;34530;52.084;5.146;2022-09-12T02:24:50;7.25;;;5.78;;
48733;SDS011;34530;52.084;5.146;2022-09-12T02:27:32;8.23;;;7.43;;
48733;SDS011;34530;52.084;5.146;2022-09-12T02:30:03;7.68;;;5.82;;
48733;SDS011;34530;52.084;5.146;2022-09-12T02:32:36;6.53;;;5.80;;
48733;SDS011;34530;52.084;5.146;2022-09-12T02:38:08;9.27;;;7.07;;
48733;SDS011;34530;52.084;5.146;2022-09-12T02:40:38;6.97;;;6.20;;
48733;SDS011;34530;52.084;5.146;2022-09-12T02:43:05;8.00;;;5.95;;
48733;SDS011;34530;52.084;5.146;2022-09-12T02:45:31;8.30;;;6.45;;
48733;SDS011;34530;52.084;5.146;2022-09-12T02:50:26;7.88;;;7.07;;
48733;SDS011;34530;52.084;5.146;2022-09-12T02:52:53;9.13;;;8.15;;
48733;SDS011;34530;52.084;5.146;2022-09-12T02:55:19;7.97;;;6.38;;
48733;SDS011;34530;52.084;5.146;2022-09-12T02:57:45;8.02;;;6.35;;
48733;SDS011;34530;52.084;5.146;2022-09-12T03:00:11;6.65;;;5.97;;
48733;SDS011;34530;52.084;5.146;2022-09-12T03:05:34;8.65;;;6.80;;
48733;SDS011;34530;52.084;5.146;2022-09-12T03:16:15;6.60;;;5.93;;
48733;SDS011;34530;52.084;5.146;2022-09-12T03:24:37;6.63;;;6.03;;
48733;SDS011;34530;52.084;5.146;2022-09-12T03:29:41;6.93;;;6.03;;
48733;SDS011;34530;52.084;5.146;2022-09-12T03:32:08;6.60;;;6.00;;
48733;SDS011;34530;52.084;5.146;2022-09-12T03:34:34;8.77;;;6.22;;
48733;SDS011;34530;52.084;5.146;2022-09-12T03:36:59;8.15;;;6.28;;
48733;SDS011;34530;52.084;5.146;2022-09-12T03:39:25;6.65;;;6.00;;
48733;SDS011;34530;52.084;5.146;2022-09-12T03:41:52;6.68;;;6.07;;
48733;SDS011;34530;52.084;5.146;2022-09-12T03:44:19;7.95;;;5.80;;
48733;SDS011;34530;52.084;5.146;2022-09-12T03:46:45;6.38;;;5.78;;
48733;SDS011;34530;52.084;5.146;2022-09-12T03:49:11;7.45;;;6.65;;
48733;SDS011;34530;52.084;5.146;2022-09-12T03:51:37;6.35;;;5.72;;
48733;SDS011;34530;52.084;5.146;2022-09-12T03:54:03;7.10;;;5.88;;
48733;SDS011;34530;52.084;5.146;2022-09-12T03:56:29;11.75;;;7.13;;
48733;SDS011;34530;52.084;5.146;2022-09-12T03:58:55;7.30;;;5.80;;
48733;SDS011;34530;52.084;5.146;2022-09-12T04:01:21;7.32;;;6.47;;
48733;SDS011;34530;52.084;5.146;2022-09-12T04:03:48;7.72;;;6.47;;
48733;SDS011;34530;52.084;5.146;2022-09-12T04:06:18;7.97;;;6.70;;
48733;SDS011;34530;52.084;5.146;2022-09-12T04:08:50;6.65;;;6.07;;
48733;SDS011;34530;52.084;5.146;2022-09-12T04:11:17;7.30;;;6.25;;
48733;SDS011;34530;52.084;5.146;2022-09-12T04:13:44;9.07;;;6.53;;
48733;SDS011;34530;52.084;5.146;2022-09-12T04:16:10;7.18;;;6.47;;
48733;SDS011;34530;52.084;5.146;2022-09-12T04:18:37;6.93;;;6.25;;
48733;SDS011;34530;52.084;5.146;2022-09-12T04:21:04;9.45;;;7.05;;
48733;SDS011;34530;52.084;5.146;2022-09-12T04:23:32;6.72;;;6.13;;
48733;SDS011;34530;52.084;5.146;2022-09-12T04:25:59;7.28;;;6.55;;
48733;SDS011;34530;52.084;5.146;2022-09-12T04:28:26;7.50;;;6.20;;
48733;SDS011;34530;52.084;5.146;2022-09-12T04:30:53;6.82;;;6.15;;
48733;SDS011;34530;52.084;5.146;2022-09-12T04:33:18;7.47;;;6.75;;
48733;SDS011;34530;52.084;5.146;2022-09-12T04:35:45;8.68;;;6.70;;
48733;SDS011;34530;52.084;5.146;2022-09-12T04:38:11;8.32;;;6.63;;
48733;SDS011;34530;52.084;5.146;2022-09-12T04:40:36;7.50;;;6.68;;
48733;SDS011;34530;52.084;5.146;2022-09-12T04:43:02;7.93;;;6.95;;
48733;SDS011;34530;52.084;5.146;2022-09-12T04:45:28;7.38;;;6.68;;
48733;SDS011;34530;52.084;5.146;2022-09-12T04:47:54;7.80;;;7.00;;
48733;SDS011;34530;52.084;5.146;2022-09-12T04:50:20;8.32;;;6.65;;
48733;SDS011;34530;52.084;5.146;2022-09-12T04:52:52;7.95;;;6.50;;
48733;SDS011;34530;52.084;5.146;2022-09-12T04:55:18;8.00;;;7.30;;
48733;SDS011;34530;52.084;5.146;2022-09-12T04:57:45;9.63;;;6.45;;
48733;SDS011;34530;52.084;5.146;2022-09-12T05:00:10;7.38;;;6.68;;
48733;SDS011;34530;52.084;5.146;2022-09-12T05:02:40;8.15;;;7.35;;
48733;SDS011;34530;52.084;5.146;2022-09-12T05:05:06;8.57;;;7.28;;
48733;SDS011;34530;52.084;5.146;2022-09-12T05:07:32;8.93;;;7.35;;
48733;SDS011;34530;52.084;5.146;2022-09-12T05:09:58;7.30;;;6.60;;
48733;SDS011;34530;52.084;5.146;2022-09-12T05:12:24;8.10;;;7.30;;
48733;SDS011;34530;52.084;5.146;2022-09-12T05:14:50;7.80;;;7.00;;
48733;SDS011;34530;52.084;5.146;2022-09-12T05:17:15;8.13;;;7.22;;
48733;SDS011;34530;52.084;5.146;2022-09-12T05:19:41;9.18;;;7.63;;
48733;SDS011;34530;52.084;5.146;2022-09-12T05:22:07;9.57;;;7.15;;
48733;SDS011;34530;52.084;5.146;2022-09-12T05:24:33;9.18;;;7.35;;
48733;SDS011;34530;52.084;5.146;2022-09-12T05:26:59;7.93;;;7.13;;
48733;SDS011;34530;52.084;5.146;2022-09-12T05:29:26;7.93;;;6.90;;
48733;SDS011;34530;52.084;5.146;2022-09-12T05:31:51;7.15;;;6.50;;
48733;SDS011;34530;52.084;5.146;2022-09-12T05:34:18;7.70;;;6.90;;
48733;SDS011;34530;52.084;5.146;2022-09-12T05:36:44;8.55;;;7.03;;
48733;SDS011;34530;52.084;5.146;2022-09-12T05:39:10;9.70;;;7.28;;
48733;SDS011;34530;52.084;5.146;2022-09-12T05:41:36;8.48;;;7.57;;
48733;SDS011;34530;52.084;5.146;2022-09-12T05:44:02;10.65;;;7.25;;
48733;SDS011;34530;52.084;5.146;2022-09-12T05:46:40;7.68;;;6.70;;
48733;SDS011;34530;52.084;5.146;2022-09-12T05:49:08;8.90;;;7.07;;
48733;SDS011;34530;52.084;5.146;2022-09-12T05:51:40;8.18;;;7.38;;
48733;SDS011;34530;52.084;5.146;2022-09-12T05:54:08;10.82;;;7.25;;
48733;SDS011;34530;52.084;5.146;2022-09-12T05:56:37;8.43;;;7.10;;
48733;SDS011;34530;52.084;5.146;2022-09-12T05:59:05;12.73;;;7.15;;
48733;SDS011;34530;52.084;5.146;2022-09-12T06:01:34;9.30;;;7.10;;
48733;SDS011;34530;52.084;5.146;2022-09-12T06:04:01;9.02;;;7.25;;
48733;SDS011;34530;52.084;5.146;2022-09-12T06:06:29;8.18;;;7.38;;
48733;SDS011;34530;52.084;5.146;2022-09-12T06:08:56;8.18;;;7.25;;
48733;SDS011;34530;52.084;5.146;2022-09-12T06:11:27;8.00;;;7.20;;
48733;SDS011;34530;52.084;5.146;2022-09-12T06:13:55;9.43;;;7.18;;
48733;SDS011;34530;52.084;5.146;2022-09-12T06:16:22;8.80;;;7.35;;
48733;SDS011;34530;52.084;5.146;2022-09-12T06:18:55;10.13;;;7.50;;
48733;SDS011;34530;52.084;5.146;2022-09-12T06:21:23;9.70;;;6.78;;
48733;SDS011;34530;52.084;5.146;2022-09-12T06:23:51;8.90;;;7.00;;
48733;SDS011;34530;52.084;5.146;2022-09-12T06:26:18;7.78;;;6.97;;
48733;SDS011;34530;52.084;5.146;2022-09-12T06:28:47;8.40;;;7.28;;
48733;SDS011;34530;52.084;5.146;2022-09-12T06:31:15;8.60;;;7.05;;
48733;SDS011;34530;52.084;5.146;2022-09-12T06:33:47;8.57;;;7.68;;
48733;SDS011;34530;52.084;5.146;2022-09-12T06:36:15;8.73;;;7.32;;
48733;SDS011;34530;52.084;5.146;2022-09-12T06:38:42;9.50;;;6.97;;
48733;SDS011;34530;52.084;5.146;2022-09-12T06:41:13;7.68;;;6.88;;
48733;SDS011;34530;52.084;5.146;2022-09-12T06:43:39;8.05;;;6.80;;
48733;SDS011;34530;52.084;5.146;2022-09-12T06:46:06;7.95;;;7.18;;
48733;SDS011;34530;52.084;5.146;2022-09-12T06:48:32;8.40;;;7.00;;
48733;SDS011;34530;52.084;5.146;2022-09-12T06:50:59;8.63;;;7.72;;
48733;SDS011;34530;52.084;5.146;2022-09-12T06:53:30;8.93;;;7.85;;
48733;SDS011;34530;52.084;5.146;2022-09-12T06:56:01;7.75;;;6.95;;
48733;SDS011;34530;52.084;5.146;2022-09-12T06:58:29;9.75;;;7.00;;
48733;SDS011;34530;52.084;5.146;2022-09-12T07:01:15;8.68;;;6.82;;
48733;SDS011;34530;52.084;5.146;2022-09-12T07:03:49;8.77;;;7.20;;
48733;SDS011;34530;52.084;5.146;2022-09-12T07:06:20;7.90;;;6.45;;
48733;SDS011;34530;52.084;5.146;2022-09-12T07:08:56;9.88;;;7.95;;
48733;SDS011;34530;52.084;5.146;2022-09-12T07:11:27;7.38;;;6.47;;
48733;SDS011;34530;52.084;5.146;2022-09-12T07:14:01;8.68;;;7.32;;
48733;SDS011;34530;52.084;5.146;2022-09-12T07:16:28;9.77;;;6.97;;
48733;SDS011;34530;52.084;5.146;2022-09-12T07:18:55;7.70;;;6.85;;
48733;SDS011;34530;52.084;5.146;2022-09-12T07:21:22;9.00;;;7.03;;
48733;SDS011;34530;52.084;5.146;2022-09-12T07:23:48;8.02;;;7.18;;
48733;SDS011;34530;52.084;5.146;2022-09-12T07:26:16;9.98;;;7.20;;
48733;SDS011;34530;52.084;5.146;2022-09-12T07:28:42;9.45;;;8.07;;
48733;SDS011;34530;52.084;5.146;2022-09-12T07:31:12;10.95;;;7.53;;
48733;SDS011;34530;52.084;5.146;2022-09-12T07:33:40;8.40;;;7.32;;
48733;SDS011;34530;52.084;5.146;2022-09-12T07:36:10;8.65;;;7.07;;
48733;SDS011;34530;52.084;5.146;2022-09-12T07:38:37;8.10;;;7.05;;
48733;SDS011;34530;52.084;5.146;2022-09-12T07:41:10;10.50;;;7.30;;
48733;SDS011;34530;52.084;5.146;2022-09-12T07:43:47;9.20;;;7.50;;
48733;SDS011;34530;52.084;5.146;2022-09-12T07:46:16;8.48;;;7.10;;
48733;SDS011;34530;52.084;5.146;2022-09-12T07:48:41;9.30;;;7.43;;
48733;SDS011;34530;52.084;5.146;2022-09-12T07:51:09;8.50;;;6.85;;
48733;SDS011;34530;52.084;5.146;2022-09-12T07:53:39;8.27;;;6.65;;
48733;SDS011;34530;52.084;5.146;2022-09-12T07:56:06;10.80;;;7.38;;
48733;SDS011;34530;52.084;5.146;2022-09-12T07:58:34;8.27;;;6.60;;
48733;SDS011;34530;52.084;5.146;2022-09-12T08:03:32;8.27;;;6.72;;
48733;SDS011;34530;52.084;5.146;2022-09-12T08:06:05;11.18;;;7.22;;
48733;SDS011;34530;52.084;5.146;2022-09-12T08:08:32;7.68;;;6.80;;
48733;SDS011;34530;52.084;5.146;2022-09-12T08:10:59;9.48;;;7.30;;
48733;SDS011;34530;52.084;5.146;2022-09-12T08:13:27;10.30;;;6.95;;
48733;SDS011;34530;52.084;5.146;2022-09-12T08:16:01;9.70;;;6.70;;
48733;SDS011;34530;52.084;5.146;2022-09-12T08:18:30;8.65;;;7.10;;
48733;SDS011;34530;52.084;5.146;2022-09-12T08:21:00;7.78;;;6.25;;
48733;SDS011;34530;52.084;5.146;2022-09-12T08:23:27;6.10;;;5.50;;
48733;SDS011;34530;52.084;5.146;2022-09-12T08:25:57;10.18;;;6.18;;
48733;SDS011;34530;52.084;5.146;2022-09-12T08:28:25;6.68;;;5.53;;
48733;SDS011;34530;52.084;5.146;2022-09-12T08:30:58;8.80;;;5.72;;
48733;SDS011;34530;52.084;5.146;2022-09-12T08:33:28;7.18;;;5.88;;
48733;SDS011;34530;52.084;5.146;2022-09-12T08:36:13;6.35;;;5.50;;
48733;SDS011;34530;52.084;5.146;2022-09-12T08:38:45;6.72;;;5.28;;
48733;SDS011;34530;52.084;5.146;2022-09-12T08:49:40;5.40;;;4.85;;
48733;SDS011;34530;52.084;5.146;2022-09-12T08:57:47;5.15;;;4.65;;
48733;SDS011;34530;52.084;5.146;2022-09-12T09:00:13;5.07;;;4.43;;
48733;SDS011;34530;52.084;5.146;2022-09-12T09:14:23;4.80;;;4.30;;
48733;SDS011;34530;52.084;5.146;2022-09-12T09:17:17;5.18;;;4.53;;
48733;SDS011;34530;52.084;5.146;2022-09-12T09:19:50;5.03;;;4.53;;
48733;SDS011;34530;52.084;5.146;2022-09-12T09:22:25;6.75;;;4.85;;
48733;SDS011;34530;52.084;5.146;2022-09-12T09:24:54;5.82;;;5.00;;
48733;SDS011;34530;52.084;5.146;2022-09-12T09:30:03;5.07;;;4.57;;
48733;SDS011;34530;52.084;5.146;2022-09-12T09:32:37;5.65;;;4.63;;
48733;SDS011;34530;52.084;5.146;2022-09-12T09:35:13;6.00;;;4.80;;
48733;SDS011;34530;52.084;5.146;2022-09-12T09:37:51;5.70;;;5.10;;
48733;SDS011;34530;52.084;5.146;2022-09-12T09:40:25;5.40;;;4.90;;
48733;SDS011;34530;52.084;5.146;2022-09-12T09:43:12;4.97;;;4.35;;
48733;SDS011;34530;52.084;5.146;2022-09-12T09:45:44;5.03;;;4.53;;
48733;SDS011;34530;52.084;5.146;2022-09-12T09:50:41;5.90;;;5.07;;
48733;SDS011;34530;52.084;5.146;2022-09-12T09:53:08;6.40;;;5.55;;
48733;SDS011;34530;52.084;5.146;2022-09-12T09:55:42;6.18;;;4.88;;
48733;SDS011;34530;52.084;5.146;2022-09-12T09:58:09;5.85;;;5.25;;
48733;SDS011;34530;52.084;5.146;2022-09-12T10:00:36;5.97;;;5.10;;
48733;SDS011;34530;52.084;5.146;2022-09-12T10:05:37;6.05;;;4.45;;
48733;SDS011;34530;52.084;5.146;2022-09-12T10:11:08;5.45;;;4.53;;
48733;SDS011;34530;52.084;5.146;2022-09-12T10:13:50;4.45;;;4.05;;
48733;SDS011;34530;52.084;5.146;2022-09-12T10:16:22;5.15;;;4.28;;
48733;SDS011;34530;52.084;5.146;2022-09-12T10:18:55;5.78;;;4.85;;
48733;SDS011;34530;52.084;5.146;2022-09-12T10:21:35;5.15;;;4.63;;
48733;SDS011;34530;52.084;5.146;2022-09-12T10:24:23;5.07;;;3.83;;
48733;SDS011;34530;52.084;5.146;2022-09-12T10:26:54;4.90;;;3.92;;
48733;SDS011;34530;52.084;5.146;2022-09-12T10:29:24;4.35;;;3.95;;
48733;SDS011;34530;52.084;5.146;2022-09-12T10:32:02;5.68;;;3.78;;
48733;SDS011;34530;52.084;5.146;2022-09-12T10:34:42;4.38;;;3.60;;
48733;SDS011;34530;52.084;5.146;2022-09-12T10:37:22;3.97;;;3.58;;
48733;SDS011;34530;52.084;5.146;2022-09-12T10:39:53;4.25;;;3.75;;
48733;SDS011;34530;52.084;5.146;2022-09-12T10:45:16;4.00;;;3.60;;
48733;SDS011;34530;52.084;5.146;2022-09-12T10:47:53;5.50;;;4.00;;
48733;SDS011;34530;52.084;5.146;2022-09-12T10:50:30;4.50;;;3.58;;
48733;SDS011;34530;52.084;5.146;2022-09-12T10:55:53;4.47;;;3.95;;
48733;SDS011;34530;52.084;5.146;2022-09-12T11:01:02;5.40;;;3.65;;
48733;SDS011;34530;52.084;5.146;2022-09-12T11:07:13;3.92;;;3.38;;
48733;SDS011;34530;52.084;5.146;2022-09-12T11:09:46;3.53;;;3.00;;
48733;SDS011;34530;52.084;5.146;2022-09-12T11:14:59;4.72;;;3.45;;
48733;SDS011;34530;52.084;5.146;2022-09-12T11:26:01;3.90;;;3.00;;
48733;SDS011;34530;52.084;5.146;2022-09-12T11:43:09;4.20;;;3.05;;
48733;SDS011;34530;52.084;5.146;2022-09-12T11:45:43;3.10;;;2.80;;
48733;SDS011;34530;52.084;5.146;2022-09-12T11:51:04;3.63;;;3.25;;
48733;SDS011;34530;52.084;5.146;2022-09-12T11:53:37;3.80;;;3.20;;
48733;SDS011;34530;52.084;5.146;2022-09-12T11:56:27;3.25;;;2.95;;
48733;SDS011;34530;52.084;5.146;2022-09-12T11:59:08;3.72;;;2.67;;
48733;SDS011;34530;52.084;5.146;2022-09-12T12:01:40;4.05;;;3.25;;
48733;SDS011;34530;52.084;5.146;2022-09-12T12:04:12;5.13;;;3.13;;
48733;SDS011;34530;52.084;5.146;2022-09-12T12:09:14;3.20;;;3.00;;
48733;SDS011;34530;52.084;5.146;2022-09-12T12:11:44;3.20;;;2.97;;
48733;SDS011;34530;52.084;5.146;2022-09-12T12:14:16;3.78;;;2.72;;
48733;SDS011;34530;52.084;5.146;2022-09-12T12:16:51;3.25;;;3.03;;
48733;SDS011;34530;52.084;5.146;2022-09-12T12:21:42;5.65;;;3.13;;
48733;SDS011;34530;52.084;5.146;2022-09-12T12:39:55;3.40;;;2.90;;
48733;SDS011;34530;52.084;5.146;2022-09-12T12:47:38;4.15;;;3.10;;
48733;SDS011;34530;52.084;5.146;2022-09-12T12:55:37;3.10;;;2.80;;
48733;SDS011;34530;52.084;5.146;2022-09-12T13:03:36;2.90;;;2.63;;
48733;SDS011;34530;52.084;5.146;2022-09-12T13:06:05;3.03;;;2.70;;
48733;SDS011;34530;52.084;5.146;2022-09-12T13:08:35;3.10;;;2.80;;
48733;SDS011;34530;52.084;5.146;2022-09-12T13:11:09;4.10;;;2.80;;
48733;SDS011;34530;52.084;5.146;2022-09-12T13:13:40;3.33;;;3.00;;
48733;SDS011;34530;52.084;5.146;2022-09-12T13:16:39;3.60;;;2.80;;
48733;SDS011;34530;52.084;5.146;2022-09-12T13:19:20;3.08;;;2.40;;
48733;SDS011;34530;52.084;5.146;2022-09-12T13:22:01;5.25;;;3.20;;
48733;SDS011;34530;52.084;5.146;2022-09-12T13:24:31;2.80;;;2.53;;
48733;SDS011;34530;52.084;5.146;2022-09-12T13:26:57;3.63;;;2.70;;
48733;SDS011;34530;52.084;5.146;2022-09-12T13:29:24;3.90;;;2.40;;
48733;SDS011;34530;52.084;5.146;2022-09-12T13:31:55;4.38;;;2.63;;
48733;SDS011;34530;52.084;5.146;2022-09-12T13:34:24;3.45;;;2.42;;
48733;SDS011;34530;52.084;5.146;2022-09-12T13:39:46;3.42;;;2.55;;
48733;SDS011;34530;52.084;5.146;2022-09-12T13:42:27;3.05;;;2.60;;
48733;SDS011;34530;52.084;5.146;2022-09-12T13:48:00;3.88;;;2.65;;
48733;SDS011;34530;52.084;5.146;2022-09-12T13:50:31;2.90;;;2.70;;
48733;SDS011;34530;52.084;5.146;2022-09-12T13:53:04;2.85;;;2.47;;
48733;SDS011;34530;52.084;5.146;2022-09-12T13:55:38;2.42;;;2.22;;
48733;SDS011;34530;52.084;5.146;2022-09-12T13:58:14;3.22;;;2.42;;
48733;SDS011;34530;52.084;5.146;2022-09-12T14:00:43;3.28;;;2.50;;
48733;SDS011;34530;52.084;5.146;2022-09-12T14:03:25;3.35;;;2.47;;
48733;SDS011;34530;52.084;5.146;2022-09-12T14:06:14;2.80;;;2.40;;
48733;SDS011;34530;52.084;5.146;2022-09-12T14:08:42;2.53;;;2.33;;
48733;SDS011;34530;52.084;5.146;2022-09-12T14:11:14;2.70;;;2.50;;
48733;SDS011;34530;52.084;5.146;2022-09-12T14:13:54;2.50;;;2.30;;
48733;SDS011;34530;52.084;5.146;2022-09-12T14:16:21;2.67;;;2.45;;
48733;SDS011;34530;52.084;5.146;2022-09-12T14:18:48;2.78;;;2.58;;
48733;SDS011;34530;52.084;5.146;2022-09-12T14:23:56;3.05;;;2.75;;
48733;SDS011;34530;52.084;5.146;2022-09-12T14:26:23;2.90;;;2.40;;
48733;SDS011;34530;52.084;5.146;2022-09-12T14:28:52;2.50;;;2.08;;
48733;SDS011;34530;52.084;5.146;2022-09-12T14:33:55;2.83;;;2.60;;
48733;SDS011;34530;52.084;5.146;2022-09-12T14:36:34;3.00;;;2.65;;
48733;SDS011;34530;52.084;5.146;2022-09-12T14:42:15;2.80;;;2.40;;
48733;SDS011;34530;52.084;5.146;2022-09-12T14:44:50;2.30;;;2.03;;
48733;SDS011;34530;52.084;5.146;2022-09-12T14:47:26;2.97;;;2.40;;
48733;SDS011;34530;52.084;5.146;2022-09-12T14:49:54;4.07;;;2.42;;
48733;SDS011;34530;52.084;5.146;2022-09-12T14:52:29;3.35;;;2.40;;
48733;SDS011;34530;52.084;5.146;2022-09-12T14:57:34;2.53;;;2.33;;
48733;SDS011;34530;52.084;5.146;2022-09-12T15:02:41;2.92;;;2.45;;
48733;SDS011;34530;52.084;5.146;2022-09-12T15:07:39;2.53;;;2.33;;
48733;SDS011;34530;52.084;5.146;2022-09-12T15:12:46;2.63;;;2.00;;
48733;SDS011;34530;52.084;5.146;2022-09-12T15:15:14;2.10;;;1.90;;
48733;SDS011;34530;52.084;5.146;2022-09-12T15:17:41;2.20;;;2.00;;
48733;SDS011;34530;52.084;5.146;2022-09-12T15:20:07;2.70;;;2.20;;
48733;SDS011;34530;52.084;5.146;2022-09-12T15:22:33;2.42;;;1.92;;
48733;SDS011;34530;52.084;5.146;2022-09-12T15:25:00;2.15;;;1.95;;
48733;SDS011;34530;52.084;5.146;2022-09-12T15:27:25;2.30;;;2.10;;
48733;SDS011;34530;52.084;5.146;2022-09-12T15:29:51;2.30;;;2.10;;
48733;SDS011;34530;52.084;5.146;2022-09-12T15:32:29;2.45;;;2.17;;
48733;SDS011;34530;52.084;5.146;2022-09-12T15:34:55;1.90;;;1.80;;
48733;SDS011;34530;52.084;5.146;2022-09-12T15:37:22;2.22;;;2.03;;
48733;SDS011;34530;52.084;5.146;2022-09-12T15:39:48;2.67;;;2.20;;
48733;SDS011;34530;52.084;5.146;2022-09-12T15:42:14;2.10;;;1.90;;
48733;SDS011;34530;52.084;5.146;2022-09-12T15:44:41;2.63;;;1.92;;
48733;SDS011;34530;52.084;5.146;2022-09-12T15:47:08;2.53;;;2.10;;
48733;SDS011;34530;52.084;5.146;2022-09-12T15:49:36;3.63;;;2.13;;
48733;SDS011;34530;52.084;5.146;2022-09-12T15:52:02;2.50;;;2.30;;
48733;SDS011;34530;52.084;5.146;2022-09-12T15:54:28;1.90;;;1.80;;
48733;SDS011;34530;52.084;5.146;2022-09-12T15:56:54;2.78;;;1.95;;
48733;SDS011;34530;52.084;5.146;2022-09-12T15:59:19;2.75;;;2.05;;
48733;SDS011;34530;52.084;5.146;2022-09-12T16:01:45;2.30;;;2.10;;
48733;SDS011;34530;52.084;5.146;2022-09-12T16:04:20;4.88;;;2.10;;
48733;SDS011;34530;52.084;5.146;2022-09-12T16:06:53;3.53;;;2.15;;
48733;SDS011;34530;52.084;5.146;2022-09-12T16:09:20;2.15;;;1.95;;
48733;SDS011;34530;52.084;5.146;2022-09-12T16:11:46;2.45;;;2.17;;
48733;SDS011;34530;52.084;5.146;2022-09-12T16:14:12;2.67;;;2.15;;
48733;SDS011;34530;52.084;5.146;2022-09-12T16:16:39;1.70;;;1.60;;
48733;SDS011;34530;52.084;5.146;2022-09-12T16:19:06;2.10;;;1.90;;
48733;SDS011;34530;52.084;5.146;2022-09-12T16:21:34;2.20;;;2.00;;
48733;SDS011;34530;52.084;5.146;2022-09-12T16:24:01;2.42;;;1.77;;
48733;SDS011;34530;52.084;5.146;2022-09-12T16:26:27;2.35;;;1.88;;
48733;SDS011;34530;52.084;5.146;2022-09-12T16:28:53;2.30;;;2.10;;
48733;SDS011;34530;52.084;5.146;2022-09-12T16:31:20;2.17;;;1.85;;
48733;SDS011;34530;52.084;5.146;2022-09-12T16:33:46;2.20;;;1.88;;
48733;SDS011;34530;52.084;5.146;2022-09-12T16:36:13;2.13;;;1.92;;
48733;SDS011;34530;52.084;5.146;2022-09-12T16:38:42;2.10;;;1.90;;
48733;SDS011;34530;52.084;5.146;2022-09-12T16:41:09;2.45;;;1.90;;
48733;SDS011;34530;52.084;5.146;2022-09-12T16:43:34;2.20;;;2.03;;
48733;SDS011;34530;52.084;5.146;2022-09-12T16:46:11;2.53;;;2.03;;
48733;SDS011;34530;52.084;5.146;2022-09-12T16:48:45;2.88;;;2.05;;
48733;SDS011;34530;52.084;5.146;2022-09-12T16:51:13;2.15;;;1.95;;
48733;SDS011;34530;52.084;5.146;2022-09-12T16:53:40;2.40;;;2.20;;
48733;SDS011;34530;52.084;5.146;2022-09-12T16:56:06;2.47;;;2.08;;
48733;SDS011;34530;52.084;5.146;2022-09-12T16:58:37;1.80;;;1.65;;
48733;SDS011;34530;52.084;5.146;2022-09-12T17:01:04;2.10;;;2.00;;
48733;SDS011;34530;52.084;5.146;2022-09-12T17:03:31;2.35;;;2.15;;
48733;SDS011;34530;52.084;5.146;2022-09-12T17:06:02;2.88;;;2.28;;
48733;SDS011;34530;52.084;5.146;2022-09-12T17:08:37;2.47;;;2.20;;
48733;SDS011;34530;52.084;5.146;2022-09-12T17:11:05;3.00;;;2.05;;
48733;SDS011;34530;52.084;5.146;2022-09-12T17:13:33;1.88;;;1.77;;
48733;SDS011;34530;52.084;5.146;2022-09-12T17:15:59;2.10;;;1.90;;
48733;SDS011;34530;52.084;5.146;2022-09-12T17:18:30;2.42;;;1.98;;
48733;SDS011;34530;52.084;5.146;2022-09-12T17:20:55;2.10;;;1.85;;
48733;SDS011;34530;52.084;5.146;2022-09-12T17:23:21;2.25;;;2.05;;
48733;SDS011;34530;52.084;5.146;2022-09-12T17:25:47;2.97;;;2.00;;
48733;SDS011;34530;52.084;5.146;2022-09-12T17:28:13;3.30;;;2.17;;
48733;SDS011;34530;52.084;5.146;2022-09-12T17:30:39;2.58;;;2.10;;
48733;SDS011;34530;52.084;5.146;2022-09-12T17:33:05;1.90;;;1.70;;
48733;SDS011;34530;52.084;5.146;2022-09-12T17:35:35;2.08;;;1.80;;
48733;SDS011;34530;52.084;5.146;2022-09-12T17:38:01;1.98;;;1.88;;
48733;SDS011;34530;52.084;5.146;2022-09-12T17:40:27;2.17;;;1.98;;
48733;SDS011;34530;52.084;5.146;2022-09-12T17:42:53;2.30;;;2.10;;
48733;SDS011;34530;52.084;5.146;2022-09-12T17:45:20;2.65;;;2.28;;
48733;SDS011;34530;52.084;5.146;2022-09-12T17:47:46;2.30;;;2.08;;
48733;SDS011;34530;52.084;5.146;2022-09-12T17:50:11;2.25;;;1.95;;
48733;SDS011;34530;52.084;5.146;2022-09-12T17:52:37;1.63;;;1.52;;
48733;SDS011;34530;52.084;5.146;2022-09-12T17:55:03;1.73;;;1.63;;
48733;SDS011;34530;52.084;5.146;2022-09-12T17:57:29;3.08;;;2.13;;
48733;SDS011;34530;52.084;5.146;2022-09-12T17:59:54;2.88;;;2.10;;
48733;SDS011;34530;52.084;5.146;2022-09-12T18:02:20;2.10;;;1.67;;
48733;SDS011;34530;52.084;5.146;2022-09-12T18:04:45;2.08;;;1.70;;
48733;SDS011;34530;52.084;5.146;2022-09-12T18:07:12;2.65;;;1.85;;
48733;SDS011;34530;52.084;5.146;2022-09-12T18:09:40;2.00;;;1.80;;
48733;SDS011;34530;52.084;5.146;2022-09-12T18:12:06;2.05;;;1.63;;